createdAt,value
2018-08-30T00:01:15.787Z,99.90
2018-08-30T00:03:50.934Z,99.90
2018-08-30T00:06:25.290Z,99.90
2018-08-30T00:08:59.367Z,99.90
2018-08-30T00:11:33.444Z,99.90
2018-08-30T00:14:07.514Z,99.90
2018-08-30T00:16:42.309Z,99.90
2018-08-30T00:19:17.111Z,99.90
2018-08-30T00:21:51.344Z,99.90
2018-08-30T00:24:26.226Z,99.90
2018-08-30T00:27:02.027Z,99.90
2018-08-30T00:29:36.049Z,99.90
2018-08-30T00:32:10.188Z,99.90
2018-08-30T00:34:45.183Z,99.90
2018-08-30T00:37:19.873Z,99.90
2018-08-30T00:39:54.267Z,99.90
2018-08-30T00:42:29.147Z,99.90
2018-08-30T00:45:03.943Z,99.90
2018-08-30T00:47:38.371Z,99.90
2018-08-30T00:50:13.157Z,99.90
2018-08-30T00:52:47.209Z,99.90
2018-08-30T00:55:22.186Z,99.90
2018-08-30T00:57:56.886Z,99.90
2018-08-30T01:00:31.505Z,99.90
2018-08-30T01:03:05.898Z,99.90
2018-08-30T01:05:40.931Z,99.90
2018-08-30T01:08:15.948Z,99.90
2018-08-30T01:10:50.452Z,99.90
2018-08-30T01:13:24.426Z,99.90
2018-08-30T01:15:58.216Z,99.90
2018-08-30T01:18:32.973Z,99.90
2018-08-30T01:21:06.812Z,99.90
2018-08-30T01:23:41.498Z,99.90
2018-08-30T01:26:15.876Z,99.90
2018-08-30T01:28:50.398Z,99.90
2018-08-30T01:31:25.326Z,99.90
2018-08-30T01:34:00.578Z,99.90
2018-08-30T01:36:34.969Z,99.90
2018-08-30T01:39:09.676Z,99.90
2018-08-30T01:41:44.021Z,99.90
2018-08-30T01:44:18.503Z,99.90
2018-08-30T01:46:53.290Z,99.90
2018-08-30T01:49:28.333Z,99.90
2018-08-30T01:52:02.516Z,99.90
2018-08-30T01:54:36.708Z,99.90
2018-08-30T01:57:11.661Z,99.90
2018-08-30T01:59:46.084Z,99.90
2018-08-30T02:02:20.678Z,99.90
2018-08-30T02:04:54.961Z,99.90
2018-08-30T02:07:29.667Z,99.90
2018-08-30T02:10:05.146Z,99.90
2018-08-30T02:12:39.317Z,99.90
2018-08-30T02:15:13.386Z,99.90
2018-08-30T02:17:47.357Z,99.90
2018-08-30T02:20:21.497Z,99.90
2018-08-30T02:22:56.539Z,99.90
2018-08-30T02:25:30.625Z,99.90
2018-08-30T02:28:04.973Z,99.90
2018-08-30T02:30:39.576Z,99.90
2018-08-30T02:33:13.648Z,99.90
2018-08-30T02:35:48.009Z,99.90
2018-08-30T02:38:22.294Z,99.90
2018-08-30T02:40:57.261Z,99.90
2018-08-30T02:43:32.439Z,99.90
2018-08-30T02:46:06.551Z,99.90
2018-08-30T02:48:40.827Z,99.90
2018-08-30T02:51:15.852Z,99.90
2018-08-30T02:53:50.283Z,99.90
2018-08-30T02:56:25.354Z,99.90
2018-08-30T02:59:00.972Z,99.90
2018-08-30T03:01:35.828Z,99.90
2018-08-30T03:04:09.899Z,99.90
2018-08-30T03:06:44.112Z,99.90
2018-08-30T03:09:18.799Z,99.90
2018-08-30T03:11:53.263Z,99.90
2018-08-30T03:14:27.267Z,99.90
2018-08-30T03:17:01.509Z,99.90
2018-08-30T03:21:58.137Z,99.90
2018-08-30T03:24:33.049Z,99.90
2018-08-30T03:27:07.453Z,99.90
2018-08-30T03:29:42.883Z,99.90
2018-08-30T03:32:17.472Z,99.90
2018-08-30T03:34:52.171Z,99.90
2018-08-30T03:37:26.691Z,99.90
2018-08-30T03:40:01.430Z,99.90
2018-08-30T03:42:36.465Z,99.90
2018-08-30T03:45:11.721Z,99.90
2018-08-30T03:47:45.598Z,99.90
2018-08-30T03:50:19.792Z,99.90
2018-08-30T03:52:54.376Z,99.90
2018-08-30T03:55:29.222Z,99.90
2018-08-30T03:58:04.006Z,99.90
2018-08-30T04:00:39.480Z,99.90
2018-08-30T04:03:14.119Z,99.90
2018-08-30T04:05:48.926Z,99.90
2018-08-30T04:08:23.034Z,99.90
2018-08-30T04:10:57.584Z,99.90
2018-08-30T04:13:31.660Z,99.90
2018-08-30T04:16:06.623Z,99.90
2018-08-30T04:18:41.651Z,99.90
2018-08-30T04:21:16.159Z,99.90
2018-08-30T04:23:50.576Z,99.90
2018-08-30T04:26:24.692Z,99.90
2018-08-30T04:28:59.218Z,99.90
2018-08-30T04:31:33.802Z,99.90
2018-08-30T04:34:09.207Z,99.90
2018-08-30T04:36:44.580Z,99.90
2018-08-30T04:39:18.711Z,99.90
2018-08-30T04:41:53.167Z,99.90
2018-08-30T04:44:28.633Z,99.90
2018-08-30T04:47:02.729Z,99.90
2018-08-30T04:49:37.820Z,99.90
2018-08-30T04:52:12.151Z,99.90
2018-08-30T04:54:46.845Z,99.90
2018-08-30T04:57:21.183Z,99.90
2018-08-30T04:59:56.262Z,99.90
2018-08-30T05:02:31.427Z,99.90
2018-08-30T05:05:12.310Z,99.90
2018-08-30T05:07:46.161Z,99.90
2018-08-30T05:10:20.929Z,99.90
2018-08-30T05:12:55.903Z,99.90
2018-08-30T05:15:30.352Z,99.90
2018-08-30T05:18:04.449Z,99.90
2018-08-30T05:20:38.588Z,99.90
2018-08-30T05:23:12.907Z,99.90
2018-08-30T05:25:46.793Z,99.90
2018-08-30T05:28:21.556Z,99.90
2018-08-30T05:30:55.943Z,99.90
2018-08-30T05:33:30.120Z,99.90
2018-08-30T05:36:08.012Z,99.90
2018-08-30T05:38:43.084Z,99.90
2018-08-30T05:41:17.221Z,99.90
2018-08-30T05:43:51.381Z,99.90
2018-08-30T05:46:26.061Z,99.90
2018-08-30T05:49:00.511Z,99.90
2018-08-30T05:51:34.834Z,99.90
2018-08-30T05:54:08.818Z,99.90
2018-08-30T05:56:43.920Z,99.90
2018-08-30T05:59:18.040Z,99.90
2018-08-30T06:01:53.066Z,99.90
2018-08-30T06:04:27.708Z,99.90
2018-08-30T06:07:02.166Z,99.90
2018-08-30T06:09:36.826Z,99.90
2018-08-30T06:12:10.963Z,99.90
2018-08-30T06:14:45.401Z,99.90
2018-08-30T06:17:19.782Z,99.90
2018-08-30T06:19:54.907Z,99.90
2018-08-30T06:22:29.836Z,99.90
2018-08-30T06:25:04.398Z,99.90
2018-08-30T06:27:38.601Z,99.90
2018-08-30T06:30:12.559Z,99.90
2018-08-30T06:32:46.835Z,99.90
2018-08-30T06:35:21.121Z,99.90
2018-08-30T06:37:55.611Z,99.90
2018-08-30T06:40:29.693Z,99.90
2018-08-30T06:43:04.362Z,99.90
2018-08-30T06:45:38.828Z,99.90
2018-08-30T06:48:13.259Z,99.90
2018-08-30T06:50:48.031Z,99.90
2018-08-30T06:53:22.438Z,99.90
2018-08-30T06:55:57.101Z,99.90
2018-08-30T06:58:38.161Z,99.90
2018-08-30T07:01:12.548Z,99.90
2018-08-30T07:03:46.581Z,99.90
2018-08-30T07:06:21.022Z,99.90
2018-08-30T07:08:55.426Z,99.90
2018-08-30T07:11:30.299Z,99.90
2018-08-30T07:14:05.302Z,99.90
2018-08-30T07:16:39.776Z,99.90
2018-08-30T07:19:14.443Z,99.90
2018-08-30T07:21:49.193Z,99.90
2018-08-30T07:24:24.109Z,99.90
2018-08-30T07:26:58.351Z,99.90
2018-08-30T07:29:33.252Z,99.90
2018-08-30T07:32:08.879Z,99.90
2018-08-30T07:34:43.393Z,99.90
2018-08-30T07:37:17.657Z,99.90
2018-08-30T07:39:52.129Z,99.90
2018-08-30T07:42:27.184Z,99.90
2018-08-30T07:45:01.534Z,99.90
2018-08-30T07:47:36.010Z,99.90
2018-08-30T07:50:10.737Z,99.90
2018-08-30T07:52:45.167Z,99.90
2018-08-30T07:55:20.114Z,99.90
2018-08-30T07:57:54.698Z,99.90
2018-08-30T08:00:29.468Z,99.90
2018-08-30T08:03:03.953Z,99.90
2018-08-30T08:05:37.971Z,99.90
2018-08-30T08:08:12.221Z,99.90
2018-08-30T08:10:46.998Z,99.90
2018-08-30T08:13:21.296Z,99.90
2018-08-30T08:15:55.962Z,99.90
2018-08-30T08:18:31.622Z,99.90
2018-08-30T08:21:06.174Z,99.90
2018-08-30T08:23:40.246Z,99.90
2018-08-30T08:26:14.496Z,99.90
2018-08-30T08:28:49.493Z,99.90
2018-08-30T08:31:23.926Z,99.90
2018-08-30T08:33:58.136Z,99.90
2018-08-30T08:36:32.931Z,99.90
2018-08-30T08:39:07.233Z,99.90
2018-08-30T08:41:42.490Z,99.90
2018-08-30T08:44:17.557Z,99.90
2018-08-30T08:46:53.422Z,99.90
2018-08-30T08:49:27.604Z,99.90
2018-08-30T08:52:01.531Z,99.90
2018-08-30T08:54:35.824Z,99.90
2018-08-30T08:57:09.799Z,99.90
2018-08-30T08:59:44.872Z,99.90
2018-08-30T09:02:19.311Z,99.90
2018-08-30T09:04:53.336Z,99.90
2018-08-30T09:07:28.085Z,99.90
2018-08-30T09:10:02.807Z,99.90
2018-08-30T09:12:37.941Z,99.90
2018-08-30T09:15:11.902Z,99.90
2018-08-30T09:17:46.042Z,99.90
2018-08-30T09:20:20.233Z,99.90
2018-08-30T09:22:54.732Z,99.90
2018-08-30T09:25:29.684Z,99.90
2018-08-30T09:28:04.370Z,99.90
2018-08-30T09:30:38.536Z,99.90
2018-08-30T09:33:12.727Z,99.90
2018-08-30T09:35:53.571Z,99.90
2018-08-30T09:38:28.250Z,99.90
2018-08-30T09:41:03.106Z,99.90
2018-08-30T09:43:37.416Z,99.90
2018-08-30T09:46:12.267Z,99.90
2018-08-30T09:48:46.383Z,99.90
2018-08-30T09:51:21.052Z,99.90
2018-08-30T09:53:54.887Z,99.90
2018-08-30T09:56:29.215Z,99.90
2018-08-30T09:59:03.436Z,99.90
2018-08-30T10:01:43.019Z,99.90
2018-08-30T10:04:17.992Z,99.90
2018-08-30T10:06:52.787Z,99.90
2018-08-30T10:09:28.042Z,99.90
2018-08-30T10:12:02.393Z,99.90
2018-08-30T10:14:36.696Z,99.90
2018-08-30T10:17:11.172Z,98.20
2018-08-30T10:19:45.943Z,99.30
2018-08-30T10:22:20.459Z,98.00
2018-08-30T10:24:54.756Z,98.60
2018-08-30T10:27:35.641Z,97.80
2018-08-30T10:30:10.381Z,97.40
2018-08-30T10:32:44.856Z,97.60
2018-08-30T10:35:19.831Z,96.80
2018-08-30T10:37:54.696Z,96.80
2018-08-30T10:40:29.036Z,96.40
2018-08-30T10:43:03.581Z,97.00
2018-08-30T10:45:38.553Z,96.60
2018-08-30T10:48:12.771Z,96.30
2018-08-30T10:50:47.220Z,96.20
2018-08-30T10:53:22.271Z,95.30
2018-08-30T10:55:56.788Z,94.20
2018-08-30T10:58:32.531Z,92.90
2018-08-30T11:01:07.038Z,92.70
2018-08-30T11:03:41.563Z,92.90
2018-08-30T11:06:16.552Z,91.50
2018-08-30T11:08:50.964Z,92.90
2018-08-30T11:11:25.787Z,92.40
2018-08-30T11:14:00.169Z,91.90
2018-08-30T11:16:34.359Z,91.00
2018-08-30T11:19:09.302Z,91.30
2018-08-30T11:21:43.763Z,90.10
2018-08-30T11:24:19.129Z,90.40
2018-08-30T11:26:53.387Z,89.00
2018-08-30T11:29:28.032Z,88.80
2018-08-30T11:32:02.210Z,89.50
2018-08-30T11:34:36.463Z,90.20
2018-08-30T11:37:10.329Z,89.00
2018-08-30T11:39:45.897Z,88.10
2018-08-30T11:42:21.152Z,86.80
2018-08-30T11:44:55.951Z,86.30
2018-08-30T11:47:31.162Z,85.90
2018-08-30T11:50:05.730Z,84.60
2018-08-30T11:52:40.798Z,84.20
2018-08-30T11:55:15.174Z,84.00
2018-08-30T11:57:50.208Z,83.60
2018-08-30T12:00:24.462Z,82.50
2018-08-30T12:02:59.451Z,83.30
2018-08-30T12:05:33.691Z,84.90
2018-08-30T12:08:08.328Z,82.20
2018-08-30T12:10:42.856Z,83.70
2018-08-30T12:13:17.039Z,80.20
2018-08-30T12:15:51.252Z,78.40
2018-08-30T12:18:26.342Z,78.70
2018-08-30T12:21:00.552Z,80.20
2018-08-30T12:23:35.174Z,78.50
2018-08-30T12:26:10.277Z,78.80
2018-08-30T12:28:44.498Z,77.80
2018-08-30T12:31:19.079Z,78.60
2018-08-30T12:33:53.963Z,78.70
2018-08-30T12:36:28.621Z,79.70
2018-08-30T12:39:03.955Z,82.40
2018-08-30T12:41:38.081Z,79.40
2018-08-30T12:44:13.083Z,78.30
2018-08-30T12:46:48.053Z,77.90
2018-08-30T12:49:23.114Z,77.20
2018-08-30T12:51:58.168Z,80.70
2018-08-30T12:54:33.300Z,77.10
2018-08-30T12:57:08.063Z,77.10
2018-08-30T12:59:42.826Z,76.80
2018-08-30T13:02:17.500Z,76.90
2018-08-30T13:04:51.633Z,74.30
2018-08-30T13:07:29.607Z,72.30
2018-08-30T13:10:04.672Z,71.80
2018-08-30T13:12:40.540Z,68.40
2018-08-30T13:15:15.428Z,67.20
2018-08-30T13:17:50.290Z,68.30
2018-08-30T13:20:24.410Z,69.30
2018-08-30T13:23:01.483Z,67.20
2018-08-30T13:25:38.147Z,65.60
2018-08-30T13:28:14.502Z,66.60
2018-08-30T13:30:49.706Z,64.50
2018-08-30T13:33:24.512Z,65.50
2018-08-30T13:35:59.311Z,65.40
2018-08-30T13:38:34.418Z,66.70
2018-08-30T13:41:09.965Z,67.60
2018-08-30T13:43:43.991Z,68.30
2018-08-30T13:46:18.488Z,69.40
2018-08-30T13:48:53.592Z,67.90
2018-08-30T13:51:28.729Z,67.30
2018-08-30T13:54:04.233Z,69.10
2018-08-30T13:56:38.802Z,69.70
2018-08-30T13:59:13.534Z,70.40
2018-08-30T14:01:48.487Z,71.10
2018-08-30T14:04:23.284Z,71.80
2018-08-30T14:06:58.176Z,71.30
2018-08-30T14:09:33.217Z,71.40
2018-08-30T14:12:08.388Z,71.10
2018-08-30T14:14:47.984Z,71.60
2018-08-30T14:17:23.398Z,71.80
2018-08-30T14:19:58.019Z,72.50
2018-08-30T14:22:38.669Z,72.70
2018-08-30T14:25:13.512Z,74.50
2018-08-30T14:27:47.575Z,73.70
2018-08-30T14:30:22.605Z,72.80
2018-08-30T14:32:58.002Z,73.10
2018-08-30T14:35:32.878Z,73.10
2018-08-30T14:38:07.354Z,70.50
2018-08-30T14:40:41.888Z,70.60
2018-08-30T14:43:16.097Z,70.40
2018-08-30T14:45:50.783Z,72.40
2018-08-30T14:48:25.053Z,76.30
2018-08-30T14:50:59.561Z,78.90
2018-08-30T14:53:33.877Z,78.30
2018-08-30T14:56:08.120Z,79.40
2018-08-30T14:58:42.538Z,79.20
2018-08-30T15:01:16.962Z,78.10
2018-08-30T15:03:51.373Z,77.00
2018-08-30T15:06:26.561Z,76.30
2018-08-30T15:09:00.810Z,77.60
2018-08-30T15:11:42.168Z,78.20
2018-08-30T15:14:17.130Z,76.90
2018-08-30T15:16:51.593Z,77.70
2018-08-30T15:19:26.092Z,80.60
2018-08-30T15:22:01.087Z,81.70
2018-08-30T15:24:35.358Z,79.80
2018-08-30T15:27:09.330Z,77.10
2018-08-30T15:29:44.417Z,77.20
2018-08-30T15:32:19.288Z,76.90
2018-08-30T15:34:54.803Z,77.10
2018-08-30T15:37:29.357Z,78.20
2018-08-30T15:40:04.781Z,76.00
2018-08-30T15:42:39.563Z,76.30
2018-08-30T15:45:14.013Z,75.80
2018-08-30T15:47:48.070Z,74.50
2018-08-30T15:50:22.698Z,75.70
2018-08-30T15:52:56.797Z,77.20
2018-08-30T15:55:31.349Z,76.80
2018-08-30T15:58:05.793Z,76.30
2018-08-30T16:00:40.421Z,76.20
2018-08-30T16:03:14.576Z,75.70
2018-08-30T16:05:49.589Z,74.40
2018-08-30T16:08:24.663Z,74.70
2018-08-30T16:10:59.774Z,76.30
2018-08-30T16:13:34.546Z,77.80
2018-08-30T16:16:08.955Z,78.60
2018-08-30T16:18:44.079Z,80.00
2018-08-30T16:21:18.445Z,82.10
2018-08-30T16:23:53.217Z,83.00
2018-08-30T16:26:27.942Z,83.10
2018-08-30T16:29:03.260Z,83.90
2018-08-30T16:31:37.447Z,85.90
2018-08-30T16:34:11.946Z,86.20
2018-08-30T16:36:46.979Z,87.80
2018-08-30T16:39:21.072Z,88.00
2018-08-30T16:41:55.437Z,89.80
2018-08-30T16:44:29.926Z,90.60
2018-08-30T16:47:04.940Z,90.80
2018-08-30T16:49:41.117Z,91.20
2018-08-30T16:52:17.317Z,91.90
2018-08-30T16:54:58.451Z,91.90
2018-08-30T16:57:32.997Z,92.50
2018-08-30T17:00:07.801Z,92.80
2018-08-30T17:02:48.842Z,92.80
2018-08-30T17:05:23.371Z,93.20
2018-08-30T17:07:58.428Z,93.20
2018-08-30T17:10:32.863Z,93.80
2018-08-30T17:13:07.047Z,94.10
2018-08-30T17:15:41.440Z,94.60
2018-08-30T17:18:16.322Z,95.00
2018-08-30T17:20:52.251Z,95.70
2018-08-30T17:23:26.784Z,96.10
2018-08-30T17:26:01.951Z,96.30
2018-08-30T17:28:36.268Z,97.10
2018-08-30T17:31:10.567Z,97.20
2018-08-30T17:33:45.067Z,96.90
2018-08-30T17:36:19.859Z,97.90
2018-08-30T17:38:54.817Z,98.00
2018-08-30T17:41:29.530Z,98.70
2018-08-30T17:44:04.077Z,99.20
2018-08-30T17:46:39.385Z,99.30
2018-08-30T17:49:13.626Z,99.80
2018-08-30T17:51:48.589Z,99.90
2018-08-30T17:54:23.882Z,99.00
2018-08-30T17:56:58.409Z,99.40
2018-08-30T17:59:32.716Z,99.90
2018-08-30T18:02:07.422Z,99.60
2018-08-30T18:04:42.239Z,99.80
2018-08-30T18:07:16.482Z,99.70
2018-08-30T18:09:53.468Z,99.30
2018-08-30T18:12:30.465Z,99.30
2018-08-30T18:15:05.008Z,98.80
2018-08-30T18:17:39.360Z,98.80
2018-08-30T18:20:13.606Z,98.50
2018-08-30T18:22:47.936Z,98.60
2018-08-30T18:25:22.313Z,98.40
2018-08-30T18:27:56.664Z,98.00
2018-08-30T18:30:31.186Z,97.80
2018-08-30T18:33:05.636Z,97.60
2018-08-30T18:35:40.052Z,97.70
2018-08-30T18:38:14.320Z,97.50
2018-08-30T18:40:48.886Z,97.40
2018-08-30T18:43:23.539Z,97.70
2018-08-30T18:45:58.137Z,98.50
2018-08-30T18:48:33.379Z,98.40
2018-08-30T18:51:07.798Z,98.50
2018-08-30T18:53:42.649Z,97.90
2018-08-30T18:56:17.652Z,98.30
2018-08-30T18:58:53.056Z,97.60
2018-08-30T19:01:27.580Z,97.50
2018-08-30T19:04:01.937Z,98.10
2018-08-30T19:06:37.069Z,97.90
2018-08-30T19:09:12.312Z,97.80
2018-08-30T19:11:47.209Z,97.90
2018-08-30T19:14:21.558Z,97.80
2018-08-30T19:17:01.281Z,97.80
2018-08-30T19:19:36.366Z,97.80
2018-08-30T19:22:11.423Z,97.60
2018-08-30T19:24:51.691Z,97.40
2018-08-30T19:27:26.445Z,97.30
2018-08-30T19:30:06.641Z,97.00
2018-08-30T19:32:41.121Z,96.90
2018-08-30T19:36:20.493Z,96.60
2018-08-30T19:38:54.993Z,96.80
2018-08-30T19:41:30.018Z,96.90
2018-08-30T19:44:04.292Z,96.60
2018-08-30T19:46:38.614Z,96.90
2018-08-30T19:49:14.244Z,96.90
2018-08-30T19:51:49.339Z,96.80
2018-08-30T19:54:23.990Z,97.10
2018-08-30T19:56:58.594Z,97.20
2018-08-30T19:59:32.849Z,97.50
2018-08-30T20:02:07.149Z,97.70
2018-08-30T20:04:41.873Z,97.30
2018-08-30T20:07:16.147Z,97.10
2018-08-30T20:09:50.658Z,97.50
2018-08-30T20:12:24.676Z,97.80
2018-08-30T20:14:59.165Z,98.10
2018-08-30T20:17:33.956Z,98.20
2018-08-30T20:20:08.449Z,98.20
2018-08-30T20:22:43.504Z,98.40
2018-08-30T20:25:17.652Z,98.50
2018-08-30T20:27:52.341Z,98.60
2018-08-30T20:30:27.657Z,98.70
2018-08-30T20:33:02.671Z,98.80
2018-08-30T20:35:38.026Z,99.40
2018-08-30T20:38:12.847Z,99.90
2018-08-30T20:40:47.042Z,99.90
2018-08-30T20:43:22.067Z,99.90
2018-08-30T20:45:56.977Z,99.90
2018-08-30T20:48:31.460Z,99.90
2018-08-30T20:51:05.964Z,99.90
2018-08-30T20:53:40.726Z,99.90
2018-08-30T20:56:15.200Z,99.90
2018-08-30T20:58:49.477Z,99.90
2018-08-30T21:01:24.587Z,99.90
2018-08-30T21:03:59.587Z,99.90
2018-08-30T21:06:34.092Z,99.90
2018-08-30T21:09:09.817Z,99.90
2018-08-30T21:11:44.295Z,99.90
2018-08-30T21:14:18.706Z,99.90
2018-08-30T21:16:54.020Z,99.90
2018-08-30T21:19:28.303Z,99.90
2018-08-30T21:22:02.972Z,99.90
2018-08-30T21:24:40.181Z,99.90
2018-08-30T21:27:15.330Z,99.90
2018-08-30T21:29:50.159Z,99.90
2018-08-30T21:32:25.471Z,99.90
2018-08-30T21:34:59.531Z,99.90
2018-08-30T21:37:34.126Z,99.90
2018-08-30T21:40:09.451Z,99.90
2018-08-30T21:42:44.754Z,99.90
2018-08-30T21:45:18.943Z,99.90
2018-08-30T21:47:56.207Z,99.90
2018-08-30T21:50:30.751Z,99.90
2018-08-30T21:53:05.492Z,99.90
2018-08-30T21:55:39.623Z,99.90
2018-08-30T21:58:14.244Z,99.90
2018-08-30T22:00:49.236Z,99.90
2018-08-30T22:03:24.257Z,99.90
2018-08-30T22:05:59.206Z,99.90
2018-08-30T22:08:33.602Z,99.90
2018-08-30T22:11:07.785Z,99.90
2018-08-30T22:13:42.742Z,99.90
2018-08-30T22:16:16.878Z,99.90
2018-08-30T22:18:51.703Z,99.90
2018-08-30T22:21:26.027Z,99.90
2018-08-30T22:24:00.122Z,99.90
2018-08-30T22:26:35.278Z,99.90
2018-08-30T22:29:09.572Z,99.90
2018-08-30T22:31:43.632Z,99.90
2018-08-30T22:34:18.142Z,99.90
2018-08-30T22:36:52.252Z,99.90
2018-08-30T22:39:26.680Z,99.90
2018-08-30T22:42:00.906Z,99.90
2018-08-30T22:44:35.513Z,99.90
2018-08-30T22:47:09.700Z,99.90
2018-08-30T22:49:45.007Z,99.90
2018-08-30T22:52:19.182Z,99.90
2018-08-30T22:54:53.918Z,99.90
2018-08-30T22:57:28.374Z,99.90
2018-08-30T23:00:03.481Z,99.90
2018-08-30T23:02:37.512Z,99.90
2018-08-30T23:05:11.967Z,99.90
2018-08-30T23:07:45.877Z,99.90
2018-08-30T23:10:20.522Z,99.90
2018-08-30T23:12:54.788Z,99.90
2018-08-30T23:15:29.529Z,99.90
2018-08-30T23:18:04.121Z,99.90
2018-08-30T23:20:38.445Z,99.90
2018-08-30T23:23:12.568Z,99.90
2018-08-30T23:25:46.601Z,99.90
2018-08-30T23:28:21.043Z,99.90
2018-08-30T23:30:55.537Z,99.90
2018-08-30T23:33:30.661Z,99.90
2018-08-30T23:36:05.896Z,99.90
2018-08-30T23:38:39.820Z,99.90
2018-08-30T23:41:14.494Z,99.90
2018-08-30T23:43:49.266Z,99.90
2018-08-30T23:46:24.317Z,99.90
2018-08-30T23:48:58.470Z,99.90
2018-08-30T23:51:32.466Z,99.90
2018-08-30T23:54:07.222Z,99.90
2018-08-30T23:56:41.403Z,99.90
